createdAt,value
2017-11-01T00:00:44.960Z,95661.12
2017-11-01T00:03:12.214Z,95658.67
2017-11-01T00:05:39.431Z,95653.17
2017-11-01T00:08:06.616Z,95657.72
2017-11-01T00:10:33.817Z,95659.97
2017-11-01T00:13:00.994Z,95650.32
2017-11-01T00:15:28.438Z,95653.52
2017-11-01T00:17:55.618Z,95654.66
2017-11-01T00:20:22.841Z,95651.63
2017-11-01T00:22:49.995Z,95654.09
2017-11-01T00:25:17.185Z,95656.91
2017-11-01T00:27:44.388Z,95654.63
2017-11-01T00:30:11.576Z,95653.50
2017-11-01T00:32:38.743Z,95657.67
2017-11-01T00:35:05.967Z,95661.45
2017-11-01T00:37:33.265Z,95656.35
2017-11-01T00:40:00.499Z,95665.77
2017-11-01T00:42:27.688Z,95660.09
2017-11-01T00:44:54.922Z,95661.23
2017-11-01T00:47:22.138Z,95656.14
2017-11-01T00:49:49.309Z,95653.84
2017-11-01T00:52:16.500Z,95655.92
2017-11-01T00:54:43.662Z,95652.53
2017-11-01T00:57:10.851Z,95658.75
2017-11-01T00:59:38.068Z,95659.32
2017-11-01T01:02:05.275Z,95660.08
2017-11-01T01:04:32.532Z,95665.34
2017-11-01T01:06:59.757Z,95667.61
2017-11-01T01:09:26.916Z,95662.52
2017-11-01T01:11:54.114Z,95662.14
2017-11-01T01:14:21.264Z,95667.61
2017-11-01T01:16:48.439Z,95663.45
2017-11-01T01:19:15.653Z,95654.37
2017-11-01T01:21:43.086Z,95657.77
2017-11-01T01:24:10.777Z,95663.83
2017-11-01T01:26:38.064Z,95662.88
2017-11-01T01:29:05.370Z,95667.39
2017-11-01T01:31:32.535Z,95658.72
2017-11-01T01:33:59.725Z,95662.12
2017-11-01T01:36:26.919Z,95668.34
2017-11-01T01:38:54.144Z,95658.13
2017-11-01T01:41:21.307Z,95651.90
2017-11-01T01:43:48.546Z,95661.88
2017-11-01T01:46:15.715Z,95657.56
2017-11-01T01:48:42.988Z,95671.34
2017-11-01T01:51:10.190Z,95664.55
2017-11-01T01:53:37.339Z,95661.68
2017-11-01T01:56:04.573Z,95657.72
2017-11-01T01:58:31.742Z,95657.14
2017-11-01T02:00:58.936Z,95659.41
2017-11-01T02:03:26.100Z,95664.33
2017-11-01T02:05:53.301Z,95668.31
2017-11-01T02:08:20.568Z,95665.85
2017-11-01T02:10:47.727Z,95664.13
2017-11-01T02:13:14.893Z,95664.86
2017-11-01T02:15:42.092Z,95660.69
2017-11-01T02:18:09.314Z,95664.64
2017-11-01T02:20:36.483Z,95662.36
2017-11-01T02:23:03.651Z,95662.70
2017-11-01T02:25:30.880Z,95663.20
2017-11-01T02:27:58.042Z,95663.58
2017-11-01T02:38:07.508Z,95658.44
2017-11-01T02:40:34.705Z,95660.70
2017-11-01T02:43:01.848Z,95657.65
2017-11-01T02:45:29.075Z,95662.55
2017-11-01T02:47:56.262Z,95667.64
2017-11-01T02:50:23.463Z,95662.37
2017-11-01T02:52:50.603Z,95664.63
2017-11-01T02:55:17.831Z,95659.31
2017-11-01T02:57:44.994Z,95657.27
2017-11-01T03:00:12.207Z,95658.38
2017-11-01T03:02:39.371Z,95659.90
2017-11-01T03:05:06.662Z,95656.13
2017-11-01T03:07:33.827Z,95658.58
2017-11-01T03:10:01.043Z,95664.82
2017-11-01T03:12:28.322Z,95664.25
2017-11-01T03:14:55.514Z,95661.97
2017-11-01T03:17:22.737Z,95654.98
2017-11-01T03:19:49.888Z,95651.18
2017-11-01T03:22:17.068Z,95653.83
2017-11-01T03:24:44.259Z,95650.24
2017-11-01T03:27:11.501Z,95639.09
2017-11-01T03:29:38.727Z,95656.08
2017-11-01T03:32:05.912Z,95651.38
2017-11-01T03:34:33.105Z,95653.09
2017-11-01T03:37:00.297Z,95653.64
2017-11-01T03:39:27.440Z,95654.77
2017-11-01T03:41:54.644Z,95651.18
2017-11-01T03:44:22.142Z,95656.28
2017-11-01T03:46:49.300Z,95654.58
2017-11-01T03:49:16.572Z,95653.25
2017-11-01T03:51:43.742Z,95651.93
2017-11-01T03:54:10.937Z,95657.79
2017-11-01T03:56:38.103Z,95650.80
2017-11-01T03:59:05.348Z,95663.23
2017-11-01T04:01:32.559Z,95658.91
2017-11-01T04:03:59.796Z,95658.13
2017-11-01T04:06:27.000Z,95663.42
2017-11-01T04:08:54.187Z,95659.85
2017-11-01T04:11:21.411Z,95661.53
2017-11-01T04:13:48.651Z,95655.87
2017-11-01T04:16:15.804Z,95654.39
2017-11-01T04:18:42.995Z,95659.11
2017-11-01T04:21:10.194Z,95664.97
2017-11-01T04:23:37.438Z,95664.44
2017-11-01T04:26:04.632Z,95666.14
2017-11-01T04:28:31.781Z,95670.48
2017-11-01T04:30:59.081Z,95676.16
2017-11-01T04:33:26.251Z,95674.67
2017-11-01T04:35:53.415Z,95667.86
2017-11-01T04:38:20.642Z,95665.23
2017-11-01T04:40:47.792Z,95674.30
2017-11-01T04:43:15.120Z,95679.81
2017-11-01T04:45:42.348Z,95670.08
2017-11-01T04:48:09.601Z,95669.73
2017-11-01T06:17:45.742Z,95779.86
2017-11-01T07:47:36.202Z,95784.84
2017-11-01T11:36:39.985Z,95633.31
2017-11-01T16:49:55.191Z,95648.13
2017-11-01T16:52:23.193Z,95646.23
2017-11-01T16:54:50.438Z,95647.75
2017-11-01T16:57:17.705Z,95651.92
2017-11-01T16:59:44.947Z,95653.45
2017-11-01T17:02:13.710Z,95648.31
2017-11-01T17:04:40.958Z,95654.61
2017-11-01T17:07:08.131Z,95650.45
2017-11-01T17:09:35.363Z,95646.27
2017-11-01T17:12:02.878Z,95652.00
2017-11-01T17:14:30.065Z,95649.91
2017-11-01T17:16:57.398Z,95651.83
2017-11-01T17:19:24.645Z,95650.88
2017-11-01T17:21:52.184Z,95654.31
2017-11-01T17:26:52.240Z,95650.92
2017-11-01T17:29:19.520Z,95654.52
2017-11-01T17:31:46.799Z,95649.59
2017-11-01T17:34:14.094Z,95656.63
2017-11-01T17:36:41.362Z,95652.47
2017-11-01T17:39:08.588Z,95647.92
2017-11-01T17:41:35.825Z,95643.00
2017-11-01T17:44:04.269Z,95646.03
2017-11-01T17:46:31.477Z,95643.59
2017-11-01T17:48:58.773Z,95647.95
2017-11-01T17:51:25.948Z,95650.05
2017-11-01T17:53:53.196Z,95651.58
2017-11-01T17:56:20.449Z,95651.20
2017-11-01T17:58:47.815Z,95654.63
2017-11-01T18:01:15.023Z,95652.38
2017-11-01T18:03:42.215Z,95651.23
2017-11-01T18:06:09.471Z,95658.78
2017-11-01T18:08:36.689Z,95657.66
2017-11-01T18:11:03.969Z,95655.19
2017-11-01T18:13:31.177Z,95653.65
2017-11-01T18:15:58.483Z,95651.58
2017-11-01T18:18:25.697Z,95653.27
2017-11-01T18:20:52.933Z,95647.39
2017-11-01T18:23:20.198Z,95650.05
2017-11-01T18:25:47.387Z,95652.11
2017-11-01T18:28:14.643Z,95648.34
2017-11-01T18:30:41.840Z,95655.36
2017-11-01T18:33:09.100Z,95654.03
2017-11-01T18:35:36.358Z,95660.08
2017-11-01T18:38:03.532Z,95655.36
2017-11-01T18:40:30.788Z,95661.80
2017-11-01T18:42:57.955Z,95661.44
2017-11-01T18:45:25.125Z,95661.05
2017-11-01T18:47:52.385Z,95666.19
2017-11-01T18:50:19.586Z,95665.98
2017-11-01T18:52:46.815Z,95666.92
2017-11-01T18:55:14.206Z,95674.16
2017-11-01T18:57:41.395Z,95667.69
2017-11-01T19:00:08.632Z,95671.30
2017-11-01T19:02:35.947Z,95671.67
2017-11-01T19:05:03.145Z,95671.11
2017-11-01T19:07:30.313Z,95678.70
2017-11-01T19:09:57.543Z,95677.58
2017-11-01T19:12:24.741Z,95676.42
2017-11-01T19:14:52.572Z,95674.16
2017-11-01T19:17:19.775Z,95670.38
2017-11-01T19:19:47.026Z,95672.27
2017-11-01T19:22:14.318Z,95670.58
2017-11-01T19:24:41.539Z,95666.42
2017-11-01T19:27:08.913Z,95675.50
2017-11-01T19:29:36.138Z,95674.38
2017-11-01T19:32:04.024Z,95675.88
2017-11-01T19:34:31.381Z,95673.23
2017-11-01T19:42:06.225Z,95676.05
2017-11-01T19:44:33.449Z,95676.61
2017-11-01T19:47:00.654Z,95679.65
2017-11-01T19:49:27.864Z,95677.77
2017-11-01T19:51:55.154Z,95677.02
2017-11-01T19:54:22.351Z,95676.81
2017-11-01T19:56:49.607Z,95682.72
2017-11-01T19:59:16.776Z,95675.12
2017-11-01T20:01:43.992Z,95678.17
2017-11-01T20:04:11.173Z,95668.31
2017-11-01T20:06:38.362Z,95667.37
2017-11-01T20:09:05.635Z,95666.04
2017-11-01T20:11:32.815Z,95670.58
2017-11-01T20:14:00.608Z,95666.59
2017-11-01T20:16:27.808Z,95666.97
2017-11-01T20:18:54.990Z,95670.97
2017-11-01T20:21:22.194Z,95677.80
2017-11-01T20:23:49.412Z,95670.59
2017-11-01T20:26:16.633Z,95673.27
2017-11-01T20:28:43.806Z,95669.09
2017-11-01T20:31:11.008Z,95671.94
2017-11-01T20:36:11.709Z,95670.80
2017-11-01T20:38:38.956Z,95669.67
2017-11-01T20:41:06.192Z,95672.12
2017-11-01T20:43:33.429Z,95673.39
2017-11-01T20:46:00.635Z,95675.30
2017-11-01T20:48:27.876Z,95670.73
2017-11-01T20:50:55.175Z,95664.48
2017-11-01T20:53:22.840Z,95662.59
2017-11-01T20:55:52.105Z,95657.65
2017-11-01T20:58:19.352Z,95658.41
2017-11-01T21:00:46.637Z,95657.64
2017-11-01T21:03:13.818Z,95665.96
2017-11-01T21:05:41.080Z,95663.89
2017-11-01T21:08:08.287Z,95666.72
2017-11-01T21:10:35.671Z,95667.26
2017-11-01T21:13:05.292Z,95665.73
2017-11-01T21:15:32.548Z,95668.40
2017-11-01T21:17:59.885Z,95664.02
2017-11-01T21:20:27.113Z,95669.51
2017-11-01T21:22:54.378Z,95674.22
2017-11-01T21:25:21.593Z,95674.98
2017-11-01T21:27:49.187Z,95673.63
2017-11-01T21:30:16.363Z,95676.66
2017-11-01T21:32:43.598Z,95676.09
2017-11-01T21:35:10.847Z,95674.00
2017-11-01T21:37:38.117Z,95670.40
2017-11-01T21:40:05.359Z,95673.20
2017-11-01T21:42:32.919Z,95672.07
2017-11-01T21:45:00.160Z,95673.59
2017-11-01T21:47:27.520Z,95672.03
2017-11-01T21:49:56.008Z,95663.15
2017-11-01T21:52:25.281Z,95673.34
2017-11-01T21:54:52.446Z,95674.08
2017-11-01T21:57:19.661Z,95678.61
2017-11-01T21:59:46.956Z,95679.36
2017-11-01T22:02:14.219Z,95682.77
2017-11-01T22:04:41.428Z,95680.88
2017-11-01T22:07:08.640Z,95676.50
2017-11-01T22:09:35.835Z,95673.11
2017-11-01T22:12:03.027Z,95673.26
2017-11-01T22:14:30.276Z,95665.33
2017-11-01T22:16:57.567Z,95670.98
2017-11-01T22:19:24.774Z,95671.37
2017-11-01T22:21:51.988Z,95666.63
2017-11-01T22:24:19.248Z,95661.15
2017-11-01T22:26:46.447Z,95666.81
2017-11-01T22:29:13.674Z,95672.28
2017-11-01T22:31:40.867Z,95668.30
2017-11-01T22:34:08.057Z,95663.20
2017-11-01T22:36:35.354Z,95666.22
2017-11-01T22:39:02.518Z,95663.38
2017-11-01T22:41:29.704Z,95665.45
2017-11-01T22:43:56.923Z,95662.78
2017-11-01T22:46:24.161Z,95665.22
2017-11-01T22:48:51.441Z,95659.36
2017-11-01T22:51:18.651Z,95657.84
2017-11-01T22:53:45.885Z,95657.45
2017-11-01T22:56:13.211Z,95655.55
2017-11-01T22:58:40.454Z,95653.84
2017-11-01T23:01:07.699Z,95649.69
2017-11-01T23:03:34.946Z,95648.73
2017-11-01T23:06:02.768Z,95650.98
2017-11-01T23:08:29.928Z,95649.09
2017-11-01T23:10:57.160Z,95647.02
2017-11-01T23:13:24.441Z,95645.86
2017-11-01T23:15:51.734Z,95650.41
2017-11-01T23:18:18.950Z,95649.26
2017-11-01T23:20:46.180Z,95650.01
2017-11-01T23:23:13.374Z,95651.31
2017-11-01T23:25:40.843Z,95654.16
2017-11-01T23:28:08.064Z,95649.23
2017-11-01T23:30:35.246Z,95649.04
2017-11-01T23:33:02.537Z,95640.72
2017-11-01T23:35:29.731Z,95641.09
2017-11-01T23:37:56.927Z,95642.19
2017-11-01T23:40:24.132Z,95639.19
2017-11-01T23:42:51.422Z,95634.64
2017-11-01T23:45:18.696Z,95635.74
2017-11-01T23:47:45.997Z,95634.63
2017-11-01T23:50:13.236Z,95635.38
2017-11-01T23:52:40.446Z,95637.25
2017-11-01T23:55:07.724Z,95636.13
2017-11-01T23:57:34.902Z,95623.63
